createdAt,value
2019-02-16T00:01:03.055Z,2.20
2019-02-16T00:03:32.855Z,2.20
2019-02-16T00:06:02.752Z,2.20
2019-02-16T00:08:32.503Z,2.20
2019-02-16T00:11:02.290Z,2.20
2019-02-16T00:13:32.066Z,2.20
2019-02-16T00:16:01.783Z,2.20
2019-02-16T00:18:31.526Z,2.20
2019-02-16T00:21:04.039Z,2.20
2019-02-16T00:23:32.658Z,2.20
2019-02-16T00:26:03.438Z,2.20
2019-02-16T00:28:33.168Z,2.10
2019-02-16T00:31:03.019Z,2.00
2019-02-16T00:33:32.717Z,2.00
2019-02-16T00:36:02.453Z,2.00
2019-02-16T00:38:32.269Z,1.90
2019-02-16T00:41:02.051Z,1.90
2019-02-16T00:43:31.768Z,1.80
2019-02-16T00:46:01.743Z,1.80
2019-02-16T00:48:31.451Z,1.80
2019-02-16T00:51:01.154Z,1.80
2019-02-16T00:53:30.957Z,1.70
2019-02-16T00:56:00.591Z,1.60
2019-02-16T00:58:30.275Z,1.60
2019-02-16T01:01:00.092Z,1.60
2019-02-16T01:03:29.770Z,1.50
2019-02-16T01:05:59.535Z,1.40
2019-02-16T01:08:29.341Z,1.50
2019-02-16T01:10:58.990Z,1.50
2019-02-16T01:13:28.697Z,1.50
2019-02-16T01:15:58.431Z,1.60
2019-02-16T01:18:28.127Z,1.60
2019-02-16T01:20:57.828Z,1.60
2019-02-16T01:23:27.562Z,1.70
2019-02-16T01:25:57.215Z,1.70
2019-02-16T01:28:26.892Z,1.70
2019-02-16T01:30:59.742Z,1.60
2019-02-16T01:33:29.467Z,1.60
2019-02-16T01:35:59.178Z,1.60
2019-02-16T01:38:28.926Z,1.50
2019-02-16T01:40:58.831Z,1.60
2019-02-16T01:43:28.578Z,1.50
2019-02-16T01:45:58.236Z,1.40
2019-02-16T01:48:28.082Z,1.30
2019-02-16T01:50:57.731Z,1.20
2019-02-16T01:53:27.422Z,1.10
2019-02-16T01:55:57.138Z,1.00
2019-02-16T01:58:26.853Z,1.10
2019-02-16T02:00:56.588Z,1.10
2019-02-16T02:03:26.379Z,1.20
2019-02-16T02:05:56.034Z,1.10
2019-02-16T02:08:25.883Z,1.20
2019-02-16T02:10:55.630Z,1.20
2019-02-16T02:13:25.314Z,1.20
2019-02-16T02:15:55.085Z,1.20
2019-02-16T02:18:24.936Z,1.20
2019-02-16T02:20:54.583Z,1.20
2019-02-16T02:23:24.290Z,1.20
2019-02-16T02:25:54.039Z,1.20
2019-02-16T02:28:26.751Z,1.20
2019-02-16T02:30:56.446Z,1.20
2019-02-16T02:33:26.305Z,1.20
2019-02-16T02:35:55.981Z,1.30
2019-02-16T02:38:25.665Z,1.20
2019-02-16T02:40:55.429Z,1.10
2019-02-16T02:43:25.168Z,1.00
2019-02-16T02:45:54.798Z,0.90
2019-02-16T02:48:24.548Z,0.90
2019-02-16T02:50:54.283Z,0.90
2019-02-16T02:53:30.718Z,0.80
2019-02-16T02:55:55.306Z,0.80
2019-02-16T02:58:24.989Z,0.80
2019-02-16T03:00:54.725Z,0.80
2019-02-16T03:03:24.590Z,0.80
2019-02-16T03:05:57.624Z,0.80
2019-02-16T03:08:27.333Z,0.80
2019-02-16T03:10:57.055Z,0.80
2019-02-16T03:13:26.796Z,0.80
2019-02-16T03:15:56.538Z,0.80
2019-02-16T03:18:26.194Z,0.80
2019-02-16T03:20:55.924Z,0.80
2019-02-16T03:23:25.577Z,0.70
2019-02-16T03:26:42.204Z,0.80
2019-02-16T03:29:20.701Z,0.80
2019-02-16T03:32:21.618Z,0.70
2019-02-16T03:35:08.423Z,0.70
2019-02-16T03:38:28.737Z,0.60
2019-02-16T03:40:58.689Z,0.50
2019-02-16T03:43:28.330Z,0.50
2019-02-16T03:45:58.108Z,0.50
2019-02-16T03:48:27.739Z,0.50
2019-02-16T03:50:57.427Z,0.50
2019-02-16T03:53:27.127Z,0.60
2019-02-16T03:55:56.887Z,0.60
2019-02-16T03:58:26.553Z,0.60
2019-02-16T04:00:56.369Z,0.60
2019-02-16T04:03:26.111Z,0.60
2019-02-16T04:05:55.879Z,0.60
2019-02-16T04:08:25.670Z,0.70
2019-02-16T04:10:55.372Z,0.80
2019-02-16T04:13:25.022Z,0.90
2019-02-16T04:15:54.825Z,0.90
2019-02-16T04:18:24.564Z,0.90
2019-02-16T04:20:54.296Z,1.00
2019-02-16T04:23:23.993Z,0.90
2019-02-16T04:25:53.722Z,0.90
2019-02-16T04:28:23.411Z,0.90
2019-02-16T04:30:53.108Z,0.80
2019-02-16T04:33:22.866Z,0.80
2019-02-16T04:35:52.629Z,0.80
2019-02-16T04:38:22.296Z,0.70
2019-02-16T04:40:52.000Z,0.70
2019-02-16T04:43:21.662Z,0.70
2019-02-16T04:45:51.342Z,0.60
2019-02-16T04:48:20.987Z,0.60
2019-02-16T04:50:50.717Z,0.60
2019-02-16T04:53:20.406Z,0.60
2019-02-16T04:55:50.172Z,0.50
2019-02-16T04:58:19.838Z,0.50
2019-02-16T05:00:49.615Z,0.50
2019-02-16T05:03:19.273Z,0.50
2019-02-16T05:05:48.951Z,0.40
2019-02-16T05:08:18.598Z,0.40
2019-02-16T05:10:48.241Z,0.50
2019-02-16T05:13:17.971Z,0.50
2019-02-16T05:15:47.642Z,0.40
2019-02-16T05:18:17.392Z,0.40
2019-02-16T05:20:47.033Z,0.40
2019-02-16T05:23:16.731Z,0.40
2019-02-16T05:25:46.423Z,0.30
2019-02-16T05:28:16.140Z,0.30
2019-02-16T05:30:45.870Z,0.30
2019-02-16T05:33:15.571Z,0.40
2019-02-16T05:35:45.226Z,0.40
2019-02-16T05:38:15.016Z,0.50
2019-02-16T05:40:44.667Z,0.40
2019-02-16T05:43:14.355Z,0.40
2019-02-16T05:45:44.072Z,0.50
2019-02-16T05:48:13.788Z,0.50
2019-02-16T05:50:43.491Z,0.60
2019-02-16T05:53:13.346Z,0.50
2019-02-16T05:55:42.986Z,0.50
2019-02-16T05:58:12.678Z,0.50
2019-02-16T06:00:42.506Z,0.50
2019-02-16T06:03:12.203Z,0.50
2019-02-16T06:05:41.875Z,0.50
2019-02-16T06:08:11.665Z,0.50
2019-02-16T06:10:41.344Z,0.50
2019-02-16T06:13:11.055Z,0.70
2019-02-16T06:15:40.695Z,0.70
2019-02-16T06:18:10.431Z,0.70
2019-02-16T06:20:40.078Z,0.70
2019-02-16T06:23:09.910Z,0.80
2019-02-16T06:25:39.574Z,0.90
2019-02-16T06:28:09.285Z,0.90
2019-02-16T06:30:39.051Z,0.90
2019-02-16T06:33:08.731Z,1.00
2019-02-16T06:35:42.850Z,1.10
2019-02-16T06:38:12.592Z,1.20
2019-02-16T06:40:42.296Z,1.20
2019-02-16T06:43:11.999Z,1.30
2019-02-16T06:45:41.667Z,1.40
2019-02-16T06:48:11.355Z,1.50
2019-02-16T06:50:41.010Z,1.60
2019-02-16T06:53:13.348Z,1.70
2019-02-16T06:56:10.350Z,1.80
2019-02-16T06:58:43.516Z,1.80
2019-02-16T07:01:13.257Z,1.90
2019-02-16T07:03:42.995Z,1.90
2019-02-16T07:06:12.648Z,2.00
2019-02-16T07:08:44.133Z,2.40
2019-02-16T07:11:13.756Z,2.80
2019-02-16T07:13:43.500Z,2.90
2019-02-16T07:16:34.810Z,3.10
2019-02-16T07:19:10.326Z,3.70
2019-02-16T07:21:39.971Z,5.50
2019-02-16T07:24:09.693Z,7.90
2019-02-16T07:26:39.550Z,10.50
2019-02-16T07:29:09.356Z,13.50
2019-02-16T07:31:39.001Z,15.80
2019-02-16T07:34:08.811Z,16.50
2019-02-16T07:36:38.464Z,17.70
2019-02-16T07:39:09.150Z,18.80
2019-02-16T07:41:38.897Z,19.70
2019-02-16T07:44:21.835Z,21.40
2019-02-16T07:47:06.953Z,22.60
2019-02-16T07:49:43.659Z,22.50
2019-02-16T07:52:47.345Z,23.50
2019-02-16T07:55:23.097Z,24.60
2019-02-16T07:58:01.159Z,25.40
2019-02-16T08:00:40.594Z,25.80
2019-02-16T08:03:15.283Z,26.70
2019-02-16T08:06:16.169Z,27.60
2019-02-16T08:09:04.740Z,28.40
2019-02-16T08:11:43.982Z,29.50
2019-02-16T08:14:31.256Z,30.00
2019-02-16T08:17:22.876Z,29.70
2019-02-16T08:20:11.500Z,29.80
2019-02-16T08:22:54.400Z,28.50
2019-02-16T08:25:41.622Z,27.30
2019-02-16T08:28:16.230Z,26.90
2019-02-16T08:31:07.692Z,25.60
2019-02-16T08:33:46.174Z,23.10
2019-02-16T08:36:24.953Z,22.60
2019-02-16T08:39:28.627Z,22.60
2019-02-16T08:42:26.116Z,23.50
2019-02-16T08:45:05.862Z,23.80
2019-02-16T08:47:55.256Z,25.30
2019-02-16T08:50:42.309Z,25.00
2019-02-16T08:53:37.353Z,26.30
2019-02-16T08:56:33.388Z,26.90
2019-02-16T08:59:09.568Z,27.50
2019-02-16T09:02:01.829Z,27.00
2019-02-16T09:04:49.656Z,27.20
2019-02-16T09:07:56.802Z,27.20
2019-02-16T09:10:39.117Z,29.00
2019-02-16T09:13:18.077Z,29.10
2019-02-16T09:16:02.661Z,28.90
2019-02-16T09:19:00.123Z,28.10
2019-02-16T09:21:38.439Z,27.70
2019-02-16T09:24:20.813Z,24.80
2019-02-16T09:27:12.450Z,22.40
2019-02-16T09:30:01.135Z,19.50
2019-02-16T09:33:04.812Z,17.10
2019-02-16T09:35:43.191Z,15.20
2019-02-16T09:38:37.767Z,13.70
2019-02-16T09:41:34.504Z,12.80
2019-02-16T09:44:29.159Z,12.40
2019-02-16T09:47:16.364Z,12.40
2019-02-16T09:50:13.869Z,11.80
2019-02-16T09:53:20.616Z,11.60
2019-02-16T09:56:11.733Z,11.40
2019-02-16T09:58:55.123Z,11.60
2019-02-16T10:01:56.077Z,11.60
2019-02-16T10:04:47.924Z,11.40
2019-02-16T10:07:48.464Z,11.50
2019-02-16T10:10:35.691Z,11.60
2019-02-16T10:13:22.378Z,11.70
2019-02-16T10:16:12.161Z,11.70
2019-02-16T10:19:01.795Z,11.80
2019-02-16T10:21:56.253Z,11.80
2019-02-16T10:24:59.983Z,11.60
2019-02-16T10:27:48.658Z,11.40
2019-02-16T10:30:36.046Z,11.40
2019-02-16T10:33:33.708Z,11.40
2019-02-16T10:36:14.759Z,11.50
2019-02-16T10:39:02.153Z,11.50
2019-02-16T10:42:12.077Z,11.50
2019-02-16T10:44:56.819Z,11.60
2019-02-16T10:47:51.123Z,11.60
2019-02-16T10:50:35.250Z,11.50
2019-02-16T10:53:29.722Z,11.60
2019-02-16T10:56:18.358Z,11.70
2019-02-16T10:59:05.521Z,11.80
2019-02-16T11:01:45.721Z,11.80
2019-02-16T11:04:38.341Z,11.70
2019-02-16T11:07:41.805Z,11.80
2019-02-16T11:10:29.004Z,11.90
2019-02-16T11:13:07.586Z,12.00
2019-02-16T11:15:56.132Z,12.00
2019-02-16T11:18:57.088Z,12.00
2019-02-16T11:21:39.441Z,12.10
2019-02-16T11:24:22.415Z,12.10
2019-02-16T11:27:16.839Z,12.20
2019-02-16T11:30:05.832Z,12.10
2019-02-16T11:32:53.053Z,12.10
2019-02-16T11:35:41.743Z,12.20
2019-02-16T11:38:23.933Z,12.20
2019-02-16T11:41:18.707Z,12.20
2019-02-16T11:43:52.937Z,12.30
2019-02-16T11:46:34.331Z,12.40
2019-02-16T11:49:21.968Z,12.40
2019-02-16T11:52:19.535Z,12.40
2019-02-16T11:55:08.386Z,12.40
2019-02-16T11:57:49.160Z,12.60
2019-02-16T12:00:35.307Z,12.60
2019-02-16T12:03:32.992Z,12.60
2019-02-16T12:06:13.664Z,12.60
2019-02-16T12:09:05.235Z,12.60
2019-02-16T12:11:45.153Z,12.70
2019-02-16T12:14:32.838Z,12.80
2019-02-16T12:17:33.634Z,12.80
2019-02-16T12:20:18.001Z,12.80
2019-02-16T12:23:05.578Z,13.00
2019-02-16T12:25:53.136Z,13.00
2019-02-16T12:28:59.727Z,13.00
2019-02-16T12:31:46.635Z,13.10
2019-02-16T12:34:24.468Z,13.20
2019-02-16T12:37:04.412Z,13.20
2019-02-16T12:39:56.076Z,13.20
2019-02-16T12:42:43.315Z,13.30
2019-02-16T12:45:21.348Z,13.20
2019-02-16T12:48:06.267Z,13.40
2019-02-16T12:50:43.092Z,13.40
2019-02-16T12:53:24.033Z,13.50
2019-02-16T12:56:01.016Z,13.40
2019-02-16T12:58:38.724Z,13.40
2019-02-16T13:01:17.644Z,13.40
2019-02-16T13:04:04.780Z,13.50
2019-02-16T13:07:08.599Z,13.60
2019-02-16T13:09:57.210Z,13.60
2019-02-16T13:12:46.487Z,13.60
2019-02-16T13:15:32.771Z,13.60
2019-02-16T13:18:20.359Z,13.50
2019-02-16T13:21:07.583Z,13.60
2019-02-16T13:24:01.999Z,13.70
2019-02-16T13:27:02.778Z,13.70
2019-02-16T13:29:47.458Z,13.70
2019-02-16T13:32:51.267Z,13.80
2019-02-16T13:35:38.357Z,13.70
2019-02-16T13:38:32.816Z,13.70
2019-02-16T13:41:30.242Z,13.70
2019-02-16T13:44:08.861Z,13.70
2019-02-16T13:47:06.737Z,13.80
2019-02-16T13:49:58.152Z,13.80
2019-02-16T13:52:39.893Z,13.80
2019-02-16T13:55:33.371Z,13.90
2019-02-16T13:58:09.243Z,14.00
2019-02-16T14:00:44.017Z,14.00
2019-02-16T14:03:20.555Z,14.00
2019-02-16T14:06:08.040Z,14.00
2019-02-16T14:08:56.590Z,13.80
2019-02-16T14:11:45.306Z,13.80
2019-02-16T14:14:32.420Z,13.80
2019-02-16T14:17:23.814Z,13.70
2019-02-16T14:19:53.522Z,13.70
2019-02-16T14:22:23.751Z,13.80
2019-02-16T14:24:56.600Z,13.60
2019-02-16T14:27:26.366Z,13.60
2019-02-16T14:29:56.046Z,13.70
2019-02-16T14:32:25.757Z,13.60
2019-02-16T14:34:55.603Z,13.40
2019-02-16T14:37:47.510Z,13.50
2019-02-16T14:40:17.280Z,13.50
2019-02-16T14:42:47.031Z,13.50
2019-02-16T14:45:16.846Z,13.50
2019-02-16T14:47:46.957Z,13.40
2019-02-16T14:50:16.969Z,13.50
2019-02-16T14:52:46.785Z,13.50
2019-02-16T14:55:16.503Z,13.40
2019-02-16T14:57:46.276Z,13.50
2019-02-16T15:00:16.097Z,13.40
2019-02-16T15:02:45.958Z,13.40
2019-02-16T15:05:15.622Z,13.40
2019-02-16T15:07:45.404Z,13.20
2019-02-16T15:10:15.142Z,13.10
2019-02-16T15:12:44.919Z,13.20
2019-02-16T15:15:14.652Z,13.20
2019-02-16T15:17:44.362Z,13.20
2019-02-16T15:20:14.380Z,13.20
2019-02-16T15:22:44.118Z,13.10
2019-02-16T15:25:13.822Z,13.00
2019-02-16T15:27:43.716Z,12.90
2019-02-16T15:30:14.962Z,12.70
2019-02-16T15:32:44.980Z,12.70
2019-02-16T15:35:14.762Z,12.70
2019-02-16T15:37:44.497Z,12.70
2019-02-16T15:40:14.732Z,12.60
2019-02-16T15:42:44.507Z,12.50
2019-02-16T15:45:14.657Z,12.40
2019-02-16T15:47:44.397Z,12.40
2019-02-16T15:50:14.750Z,12.30
2019-02-16T15:52:44.733Z,12.20
2019-02-16T15:55:14.403Z,12.10
2019-02-16T15:57:44.097Z,12.00
2019-02-16T16:00:20.488Z,11.90
2019-02-16T16:02:52.981Z,11.80
2019-02-16T16:05:22.678Z,11.70
2019-02-16T16:08:11.398Z,11.60
2019-02-16T16:10:59.452Z,11.40
2019-02-16T16:13:46.553Z,11.30
2019-02-16T16:16:26.910Z,11.20
2019-02-16T16:19:13.700Z,11.10
2019-02-16T16:22:01.746Z,11.00
2019-02-16T16:24:49.381Z,10.90
2019-02-16T16:27:36.759Z,10.80
2019-02-16T16:30:23.579Z,10.60
2019-02-16T16:33:09.732Z,10.50
2019-02-16T16:36:09.554Z,10.40
2019-02-16T16:39:00.651Z,10.30
2019-02-16T16:41:52.903Z,10.20
2019-02-16T16:44:54.139Z,10.20
2019-02-16T16:47:48.947Z,10.10
2019-02-16T16:50:34.989Z,10.10
2019-02-16T16:53:23.170Z,10.10
2019-02-16T16:56:29.913Z,10.00
2019-02-16T16:59:14.254Z,9.90
2019-02-16T17:02:01.698Z,9.80
2019-02-16T17:04:43.614Z,9.70
2019-02-16T17:07:37.199Z,9.60
2019-02-16T17:10:26.444Z,9.50
2019-02-16T17:13:14.004Z,9.40
2019-02-16T17:15:53.307Z,9.30
2019-02-16T17:18:54.256Z,9.30
2019-02-16T17:21:51.270Z,9.20
2019-02-16T17:24:42.312Z,9.10
2019-02-16T17:27:30.931Z,9.10
2019-02-16T17:30:22.558Z,9.10
2019-02-16T17:33:14.006Z,9.10
2019-02-16T17:36:02.602Z,9.10
2019-02-16T17:38:47.804Z,9.20
2019-02-16T17:41:39.626Z,9.20
2019-02-16T17:44:40.265Z,9.10
2019-02-16T17:47:26.698Z,8.90
2019-02-16T17:50:01.887Z,8.90
2019-02-16T17:52:49.311Z,8.80
2019-02-16T17:55:37.915Z,8.70
2019-02-16T17:58:23.237Z,8.70
2019-02-16T18:01:24.003Z,8.70
2019-02-16T18:04:18.845Z,8.70
2019-02-16T18:07:06.428Z,8.60
2019-02-16T18:09:47.889Z,8.50
2019-02-16T18:12:34.085Z,8.40
2019-02-16T18:15:28.651Z,8.30
2019-02-16T18:18:08.398Z,8.30
2019-02-16T18:20:59.875Z,8.20
2019-02-16T18:23:43.301Z,8.20
2019-02-16T18:26:33.383Z,8.20
2019-02-16T18:29:25.093Z,8.10
2019-02-16T18:32:15.096Z,8.00
2019-02-16T18:35:06.666Z,8.00
2019-02-16T18:37:56.478Z,7.90
2019-02-16T18:40:42.834Z,7.90
2019-02-16T18:43:39.159Z,7.90
2019-02-16T18:46:30.443Z,7.80
2019-02-16T18:49:19.069Z,7.70
2019-02-16T18:52:06.384Z,7.60
2019-02-16T18:54:42.954Z,7.50
2019-02-16T18:57:34.578Z,7.40
2019-02-16T19:00:17.975Z,7.40
2019-02-16T19:02:56.069Z,7.30
2019-02-16T19:05:57.891Z,7.20
2019-02-16T19:09:01.605Z,7.10
2019-02-16T19:11:55.850Z,7.10
2019-02-16T19:14:35.887Z,7.00
2019-02-16T19:17:24.467Z,6.90
2019-02-16T19:19:59.938Z,6.90
2019-02-16T19:22:57.396Z,6.80
2019-02-16T19:25:34.651Z,6.80
2019-02-16T19:28:23.736Z,6.80
2019-02-16T19:31:03.494Z,6.70
2019-02-16T19:33:51.650Z,6.70
2019-02-16T19:36:43.291Z,6.60
2019-02-16T19:39:37.913Z,6.50
2019-02-16T19:42:29.468Z,6.50
2019-02-16T19:45:20.916Z,6.40
2019-02-16T19:48:18.482Z,6.30
2019-02-16T19:51:09.860Z,6.30
2019-02-16T19:54:01.283Z,6.20
2019-02-16T19:56:58.767Z,6.10
2019-02-16T20:00:02.003Z,6.00
2019-02-16T20:02:44.805Z,6.00
2019-02-16T20:05:28.849Z,5.90
2019-02-16T20:08:13.233Z,5.80
2019-02-16T20:11:02.029Z,5.70
2019-02-16T20:13:48.558Z,5.70
2019-02-16T20:16:40.048Z,5.60
2019-02-16T20:19:28.937Z,5.50
2019-02-16T20:22:06.026Z,5.50
2019-02-16T20:24:48.156Z,5.40
2019-02-16T20:27:42.842Z,5.40
2019-02-16T20:30:37.653Z,5.30
2019-02-16T20:33:33.653Z,5.30
2019-02-16T20:36:22.379Z,5.20
2019-02-16T20:39:26.406Z,5.20
2019-02-16T20:42:19.035Z,5.10
2019-02-16T20:45:16.687Z,5.10
2019-02-16T20:47:54.713Z,5.10
2019-02-16T20:50:35.673Z,5.10
2019-02-16T20:53:22.965Z,5.00
2019-02-16T20:56:01.047Z,5.00
2019-02-16T20:58:46.999Z,4.90
2019-02-16T21:01:35.793Z,4.90
2019-02-16T21:04:19.182Z,4.80
2019-02-16T21:07:06.382Z,4.80
2019-02-16T21:09:47.219Z,4.80
2019-02-16T21:12:41.152Z,4.80
2019-02-16T21:15:34.171Z,4.80
2019-02-16T21:18:21.038Z,4.70
2019-02-16T21:21:08.356Z,4.70
2019-02-16T21:24:08.656Z,4.70
2019-02-16T21:26:51.381Z,4.70
2019-02-16T21:29:39.782Z,4.60
2019-02-16T21:32:17.462Z,4.60
2019-02-16T21:34:56.854Z,4.60
2019-02-16T21:37:50.839Z,4.60
2019-02-16T21:40:39.580Z,4.50
2019-02-16T21:43:37.259Z,4.50
2019-02-16T21:46:24.510Z,4.50
2019-02-16T21:49:13.135Z,4.50
2019-02-16T21:52:05.323Z,4.50
2019-02-16T21:54:39.952Z,4.50
2019-02-16T21:57:31.588Z,4.50
2019-02-16T22:00:22.337Z,4.40
2019-02-16T22:02:58.694Z,4.30
2019-02-16T22:05:47.381Z,4.20
2019-02-16T22:08:35.033Z,4.10
2019-02-16T22:11:23.886Z,4.10
2019-02-16T22:13:53.636Z,4.10
2019-02-16T22:16:23.357Z,3.90
2019-02-16T22:18:56.171Z,3.90
2019-02-16T22:21:25.951Z,3.90
2019-02-16T22:23:55.612Z,4.00
2019-02-16T22:26:25.377Z,4.00
2019-02-16T22:28:55.345Z,4.10
2019-02-16T22:31:26.658Z,4.00
2019-02-16T22:33:56.424Z,4.00
2019-02-16T22:36:26.546Z,4.00
2019-02-16T22:38:56.330Z,3.90
2019-02-16T22:41:26.202Z,3.90
2019-02-16T22:43:58.280Z,3.80
2019-02-16T22:46:27.984Z,3.80
2019-02-16T22:48:57.687Z,3.70
2019-02-16T22:51:27.836Z,3.70
2019-02-16T22:53:57.601Z,3.60
2019-02-16T22:56:27.951Z,3.60
2019-02-16T22:58:57.737Z,3.50
2019-02-16T23:01:28.033Z,3.50
2019-02-16T23:03:57.774Z,3.50
2019-02-16T23:06:27.483Z,3.50
2019-02-16T23:08:57.470Z,3.50
2019-02-16T23:11:27.155Z,3.40
2019-02-16T23:13:56.851Z,3.50
2019-02-16T23:16:26.598Z,3.40
2019-02-16T23:18:56.344Z,3.40
2019-02-16T23:21:26.063Z,3.30
2019-02-16T23:23:55.734Z,3.30
2019-02-16T23:26:25.447Z,3.20
2019-02-16T23:28:55.221Z,3.20
2019-02-16T23:31:24.886Z,3.20
2019-02-16T23:33:54.544Z,3.20
2019-02-16T23:36:24.172Z,3.20
2019-02-16T23:38:53.919Z,3.10
2019-02-16T23:41:23.913Z,3.10
2019-02-16T23:43:53.743Z,3.10
2019-02-16T23:46:23.473Z,3.10
2019-02-16T23:48:53.227Z,3.10
2019-02-16T23:51:22.887Z,3.00
2019-02-16T23:53:52.552Z,3.00
2019-02-16T23:56:22.279Z,2.90
2019-02-16T23:58:51.912Z,2.90
